Time;durP1;ratioP1;P1;durP2;ratioP2;P2;SDS_P1;SDS_P2;PMS_P1;PMS_P2;Temp;Humidity;BMP_temperature;BMP_pressure;BME280_temperature;BME280_humidity;BME280_pressure;Samples;Min_cycle;Max_cycle;Signal;HPM_P1;HPM_P2
2021/12/06 00:01:08;;;;;;;;;3.00;2.00;;;;;8.39;64.72;100603.88;5059098;28;45792;-48
2021/12/06 00:03:36;;;;;;;;;5.25;3.00;;;;;8.40;64.43;100608.22;5058795;28;45422;-49
2021/12/06 00:06:02;;;;;;;;;3.00;3.00;;;;;8.40;64.57;100616.06;5060066;28;45442;-50
2021/12/06 00:08:28;;;;;;;;;4.50;2.50;;;;;8.39;64.35;100623.09;5060391;28;45323;-48
2021/12/06 00:10:53;;;;;;;;;3.00;3.00;;;;;8.41;64.41;100629.16;5059933;28;45415;-51
2021/12/06 00:13:23;;;;;;;;;4.00;4.00;;;;;8.41;64.43;100637.00;5060225;28;45371;-46
2021/12/06 00:15:50;;;;;;;;;1.50;1.00;;;;;8.38;64.48;100625.72;5059769;28;45237;-49
2021/12/06 00:18:17;;;;;;;;;4.75;4.50;;;;;8.41;64.49;100633.53;5059024;28;45170;-48
2021/12/06 00:20:44;;;;;;;;;5.50;4.00;;;;;8.38;64.71;100631.81;5059593;28;45665;-48
2021/12/06 00:23:09;;;;;;;;;2.75;2.75;;;;;8.40;64.44;100642.28;5041775;28;45551;-48
2021/12/06 00:25:35;;;;;;;;;3.50;3.50;;;;;8.40;64.51;100645.78;5059578;28;45240;-49
2021/12/06 00:28:01;;;;;;;;;4.00;3.50;;;;;8.40;64.48;100640.53;5060130;28;45303;-47
2021/12/06 00:30:26;;;;;;;;;5.00;5.00;;;;;8.38;64.35;100639.66;5059445;28;45510;-49
2021/12/06 00:32:52;;;;;;;;;5.50;4.25;;;;;8.42;64.15;100644.00;5059895;28;45350;-55
2021/12/06 00:35:21;;;;;;;;;3.00;3.00;;;;;8.43;64.42;100643.13;5059701;28;45178;-51
2021/12/06 00:37:58;;;;;;;;;3.75;2.00;;;;;8.43;64.64;100634.41;5059931;28;45358;-50
2021/12/06 00:40:46;;;;;;;;;6.50;5.00;;;;;8.43;64.29;100640.50;5059375;28;45401;-47
2021/12/06 00:43:12;;;;;;;;;3.75;3.00;;;;;8.43;64.47;100634.41;5059472;28;46228;-50
2021/12/06 00:45:38;;;;;;;;;3.25;2.00;;;;;8.44;64.39;100646.63;5059283;28;45650;-48
2021/12/06 00:48:04;;;;;;;;;4.25;3.50;;;;;8.45;64.38;100649.22;5059544;28;45301;-48
2021/12/06 00:50:32;;;;;;;;;4.25;4.00;;;;;8.41;64.33;100650.09;5059920;28;45511;-49
2021/12/06 00:52:58;;;;;;;;;2.25;2.25;;;;;8.45;64.63;100648.34;5059431;28;45341;-47
2021/12/06 00:55:25;;;;;;;;;3.00;3.00;;;;;8.45;64.25;100662.31;5059518;28;45280;-49
2021/12/06 00:57:54;;;;;;;;;3.50;3.00;;;;;8.44;64.67;100667.56;5059737;28;45327;-50
2021/12/06 01:00:34;;;;;;;;;4.25;4.00;;;;;8.46;64.43;100673.69;5059203;28;45239;-50
2021/12/06 01:03:00;;;;;;;;;4.00;3.00;;;;;8.45;64.45;100672.81;5058997;28;46226;-48
2021/12/06 01:05:26;;;;;;;;;5.25;5.00;;;;;8.45;64.72;100670.19;5059413;28;45688;-50
2021/12/06 01:07:56;;;;;;;;;3.00;3.00;;;;;8.47;64.40;100678.06;5058112;28;45424;-48
2021/12/06 01:10:25;;;;;;;;;7.00;5.75;;;;;8.48;64.25;100677.19;5057784;28;45480;-48
2021/12/06 01:12:51;;;;;;;;;5.00;3.25;;;;;8.45;64.29;100671.91;5054547;28;46105;-47
2021/12/06 01:15:17;;;;;;;;;4.00;3.75;;;;;8.47;64.55;100683.28;5054214;28;45464;-45
2021/12/06 01:17:43;;;;;;;;;4.50;4.00;;;;;8.47;64.19;100679.81;5062791;28;45145;-49
2021/12/06 01:20:19;;;;;;;;;5.00;3.75;;;;;8.46;64.42;100684.16;5062761;28;45347;-52
2021/12/06 01:22:57;;;;;;;;;5.00;4.00;;;;;8.44;64.44;100678.06;5061278;28;45265;-48
2021/12/06 01:41:27;;;;;;;;;5.00;3.00;;;;;8.45;64.39;100717.31;5062332;28;45316;-49
2021/12/06 01:44:11;;;;;;;;;6.25;4.50;;;;;8.45;64.48;100716.44;5062474;28;45343;-47
2021/12/06 01:46:40;;;;;;;;;4.75;4.75;;;;;8.43;64.47;100726.06;5058188;28;45337;-51
2021/12/06 01:49:07;;;;;;;;;2.00;2.00;;;;;8.45;64.60;100733.03;5062431;28;45178;-48
2021/12/06 01:51:33;;;;;;;;;5.25;4.00;;;;;8.47;64.69;100734.81;5062138;28;45496;-51
2021/12/06 01:54:00;;;;;;;;;5.75;3.00;;;;;8.47;64.49;100733.06;5060575;28;46331;-50
2021/12/06 01:56:26;;;;;;;;;4.00;4.00;;;;;8.49;64.56;100740.88;5062073;28;45364;-46
2021/12/06 01:58:51;;;;;;;;;3.25;3.25;;;;;8.50;64.47;100732.16;5062257;28;45347;-47
2021/12/06 02:01:16;;;;;;;;;6.00;4.75;;;;;8.49;64.48;100741.78;5061761;28;45174;-50
2021/12/06 02:03:42;;;;;;;;;5.75;4.00;;;;;8.51;64.43;100747.00;5061878;28;46311;-50
2021/12/06 02:06:08;;;;;;;;;4.50;3.00;;;;;8.53;64.47;100750.47;5061817;28;45255;-50
2021/12/06 02:08:33;;;;;;;;;2.50;2.50;;;;;8.50;64.42;100747.88;5062268;28;45283;-50
2021/12/06 02:11:02;;;;;;;;;5.00;5.00;;;;;8.53;64.51;100755.69;5061623;28;45173;-48
2021/12/06 02:13:37;;;;;;;;;6.00;6.00;;;;;8.51;64.67;100765.34;5061935;28;46993;-48
2021/12/06 02:16:04;;;;;;;;;4.00;4.00;;;;;8.52;64.53;100769.72;5061487;28;45354;-47
2021/12/06 02:21:26;;;;;;;;;11.50;6.50;;;;;8.57;64.51;100786.25;5061538;28;46132;-48
2021/12/06 02:23:52;;;;;;;;;7.75;5.00;;;;;8.56;64.47;100774.91;5060934;28;45429;-46
2021/12/06 02:26:17;;;;;;;;;5.00;5.00;;;;;8.57;64.56;100781.88;5061812;28;45264;-47
2021/12/06 02:28:43;;;;;;;;;7.25;6.75;;;;;8.58;64.51;100777.53;5061656;28;45580;-51
2021/12/06 02:31:09;;;;;;;;;6.75;4.25;;;;;8.59;64.65;100787.09;5061605;28;45240;-50
2021/12/06 02:33:35;;;;;;;;;6.25;3.75;;;;;8.59;64.57;100782.75;5059978;28;46914;-50
2021/12/06 02:36:00;;;;;;;;;6.50;3.50;;;;;8.59;64.59;100785.38;5061663;28;45318;-48
2021/12/06 02:38:25;;;;;;;;;3.25;2.00;;;;;8.59;64.35;100782.75;5061592;28;45238;-46
2021/12/06 02:40:51;;;;;;;;;4.25;3.50;;;;;8.60;64.69;100788.84;5061368;28;45397;-49
2021/12/06 02:43:16;;;;;;;;;4.75;4.75;;;;;8.60;64.51;100781.00;5061275;28;45331;-50
2021/12/06 02:45:44;;;;;;;;;6.75;5.00;;;;;8.61;64.75;100780.13;5061033;28;45334;-50
2021/12/06 02:48:11;;;;;;;;;6.00;6.00;;;;;8.61;64.48;100786.22;5075509;28;45342;-48
2021/12/06 02:50:44;;;;;;;;;6.50;4.50;;;;;8.60;64.61;100787.13;5059891;28;45388;-47
2021/12/06 02:53:10;;;;;;;;;3.75;3.75;;;;;8.61;64.55;100796.69;5061026;28;47460;-50
2021/12/06 02:55:36;;;;;;;;;7.75;5.25;;;;;8.54;64.63;100778.41;5061022;28;45395;-49
2021/12/06 02:58:33;;;;;;;;;6.00;4.75;;;;;8.61;64.75;100788.84;5061247;28;45235;-46
2021/12/06 03:01:02;;;;;;;;;9.75;4.25;;;;;8.61;64.72;100796.69;5060646;28;45354;-50
2021/12/06 03:03:28;;;;;;;;;4.75;4.75;;;;;8.55;64.57;100781.03;5060782;28;46150;-51
2021/12/06 03:05:55;;;;;;;;;5.00;4.00;;;;;8.61;64.69;100793.22;5060954;28;45342;-48
2021/12/06 03:08:48;;;;;;;;;6.75;5.75;;;;;8.65;64.75;100799.31;5061146;28;45359;-50
2021/12/06 03:11:29;;;;;;;;;5.50;4.25;;;;;8.65;64.47;100800.19;5060735;28;45407;-47
2021/12/06 03:13:55;;;;;;;;;5.25;5.00;;;;;8.66;64.66;100803.69;5060738;28;45963;-48
2021/12/06 03:16:21;;;;;;;;;4.00;4.00;;;;;8.63;64.66;100799.34;5059340;28;45222;-48
2021/12/06 03:18:48;;;;;;;;;5.25;5.25;;;;;8.64;64.67;100808.94;5060968;28;45236;-46
2021/12/06 03:21:15;;;;;;;;;5.00;5.00;;;;;8.68;64.66;100822.88;5059333;28;45264;-49
2021/12/06 03:23:41;;;;;;;;;6.75;6.00;;;;;8.68;64.68;100820.25;5060405;28;46371;-49
2021/12/06 03:26:06;;;;;;;;;5.00;4.00;;;;;8.68;64.66;100821.13;5060680;28;45389;-47
2021/12/06 03:28:37;;;;;;;;;6.75;5.75;;;;;8.68;64.62;100825.47;5060694;28;45150;-50
2021/12/06 03:31:04;;;;;;;;;9.00;5.25;;;;;8.70;64.65;100831.59;5060546;28;45313;-50
2021/12/06 03:33:30;;;;;;;;;6.25;5.25;;;;;8.71;64.81;100825.50;5060210;28;47364;-46
2021/12/06 03:35:55;;;;;;;;;5.75;5.25;;;;;8.71;64.58;100823.72;5058392;28;45980;-50
2021/12/06 03:38:20;;;;;;;;;6.75;5.50;;;;;8.72;64.82;100835.09;5060456;28;45334;-46
2021/12/06 03:40:46;;;;;;;;;9.00;5.00;;;;;8.72;64.77;100828.09;5060485;28;45378;-48
2021/12/06 03:43:11;;;;;;;;;8.00;7.25;;;;;8.74;64.78;100835.94;5058945;28;47828;-48
2021/12/06 03:45:37;;;;;;;;;7.50;7.00;;;;;8.74;64.80;100835.94;5056154;28;45286;-47
2021/12/06 03:48:03;;;;;;;;;4.50;4.50;;;;;8.70;64.86;100829.84;5060310;28;45181;-48
2021/12/06 03:50:29;;;;;;;;;13.00;9.50;;;;;8.74;64.89;100830.69;5060648;28;45157;-49
2021/12/06 03:52:54;;;;;;;;;5.75;5.75;;;;;8.74;64.58;100836.81;5058782;28;46319;-47
2021/12/06 03:55:19;;;;;;;;;10.00;7.00;;;;;8.75;64.79;100843.81;5060499;28;45302;-47
2021/12/06 03:57:45;;;;;;;;;5.25;5.00;;;;;8.72;64.78;100842.97;5060397;28;45538;-46
2021/12/06 04:00:12;;;;;;;;;11.25;9.25;;;;;8.76;64.98;100853.38;5060009;28;45149;-48
2021/12/06 04:02:38;;;;;;;;;5.50;5.50;;;;;8.75;64.56;100849.06;5059920;28;46676;-49
2021/12/06 04:05:05;;;;;;;;;5.75;5.75;;;;;8.77;64.78;100847.28;5058900;28;45962;-51
2021/12/06 04:07:30;;;;;;;;;7.25;6.00;;;;;8.75;64.67;100850.78;5060296;28;45381;-48
2021/12/06 04:09:55;;;;;;;;;9.00;6.25;;;;;8.77;64.97;100863.00;5060003;28;45319;-50
2021/12/06 04:12:21;;;;;;;;;8.25;5.25;;;;;8.73;64.95;100866.53;5059914;28;45288;-48
2021/12/06 04:14:47;;;;;;;;;8.00;8.00;;;;;8.75;64.97;100872.63;5060075;28;45323;-48
2021/12/06 04:17:13;;;;;;;;;10.00;7.25;;;;;8.78;64.88;100884.84;5059910;28;45449;-48
2021/12/06 04:19:39;;;;;;;;;9.75;9.75;;;;;8.79;65.09;100881.34;5059876;28;45268;-49
2021/12/06 04:22:05;;;;;;;;;10.00;9.00;;;;;8.75;64.94;100879.59;5059743;28;46215;-48
2021/12/06 04:24:31;;;;;;;;;11.75;10.50;;;;;8.78;65.19;100884.84;5059720;28;45260;-48
2021/12/06 04:26:58;;;;;;;;;10.50;6.00;;;;;8.79;64.77;100886.56;5060086;28;45238;-48
2021/12/06 04:29:24;;;;;;;;;9.00;9.00;;;;;8.78;65.01;100888.34;5059948;28;45472;-46
2021/12/06 04:31:53;;;;;;;;;7.75;7.50;;;;;8.78;65.16;100893.56;5059114;28;46359;-52
2021/12/06 04:34:19;;;;;;;;;10.00;7.75;;;;;8.78;65.03;100906.69;5058433;28;45450;-46
2021/12/06 04:36:46;;;;;;;;;9.25;9.25;;;;;8.75;64.93;100890.97;5059636;28;45225;-48
2021/12/06 04:39:16;;;;;;;;;10.75;8.00;;;;;8.78;65.00;100903.19;5059778;28;45318;-48
2021/12/06 04:41:43;;;;;;;;;10.00;9.75;;;;;8.78;64.93;100905.81;5059306;28;45260;-48
2021/12/06 04:44:09;;;;;;;;;9.50;7.50;;;;;8.75;64.70;100893.59;5059688;28;45489;-50
2021/12/06 04:46:36;;;;;;;;;11.00;10.75;;;;;8.73;64.92;100897.97;5059287;28;45226;-46
2021/12/06 04:49:03;;;;;;;;;8.75;8.50;;;;;8.76;64.95;100902.31;5063042;28;45335;-47
2021/12/06 04:51:29;;;;;;;;;10.50;7.00;;;;;8.76;65.18;100913.66;5062876;28;45666;-48
2021/12/06 04:53:55;;;;;;;;;9.00;8.75;;;;;8.75;65.07;100916.28;5061683;28;45338;-48
2021/12/06 04:56:38;;;;;;;;;10.75;9.25;;;;;8.73;65.09;100918.94;5063290;28;45263;-47
2021/12/06 04:59:06;;;;;;;;;11.00;9.00;;;;;8.74;65.27;100930.28;5063204;28;45439;-50
2021/12/06 05:01:33;;;;;;;;;14.75;10.75;;;;;8.73;64.76;100921.53;5062349;28;46427;-50
2021/12/06 05:04:03;;;;;;;;;10.25;9.50;;;;;8.70;65.08;100913.69;5062705;28;45422;-47
2021/12/06 05:06:32;;;;;;;;;11.50;7.75;;;;;8.74;65.07;100933.78;5078691;28;45331;-51
2021/12/06 05:09:07;;;;;;;;;10.00;6.50;;;;;8.74;64.89;100933.78;5062768;28;45225;-49
2021/12/06 05:11:32;;;;;;;;;10.25;10.25;;;;;8.75;64.86;100937.25;5061466;28;46095;-50
2021/12/06 05:14:01;;;;;;;;;8.75;8.75;;;;;8.74;65.18;100941.63;5062640;28;45261;-49
2021/12/06 05:16:27;;;;;;;;;6.00;6.00;;;;;8.74;65.15;100936.41;5062683;28;45442;-48
2021/12/06 05:18:52;;;;;;;;;8.50;8.50;;;;;8.74;64.91;100938.13;5062531;28;45266;-46
2021/12/06 05:21:18;;;;;;;;;8.50;6.75;;;;;8.74;65.20;100951.22;5062496;28;46041;-47
2021/12/06 05:23:43;;;;;;;;;10.50;10.50;;;;;8.72;65.13;100947.75;5062420;28;45391;-46
2021/12/06 05:26:08;;;;;;;;;13.00;10.00;;;;;8.75;65.22;100958.22;5061546;28;45415;-48
2021/12/06 05:28:40;;;;;;;;;11.00;10.00;;;;;8.68;64.96;100943.38;5062418;28;45308;-49
2021/12/06 05:31:13;;;;;;;;;13.00;13.00;;;;;8.73;65.05;100953.00;5062237;28;47180;-48
2021/12/06 05:33:41;;;;;;;;;13.75;11.00;;;;;8.72;65.08;100953.00;5062354;28;45224;-49
2021/12/06 05:36:07;;;;;;;;;13.50;13.25;;;;;8.75;65.26;100958.22;5062628;28;45614;-47
2021/12/06 05:38:33;;;;;;;;;11.75;10.25;;;;;8.75;65.18;100964.34;5060857;28;45457;-47
2021/12/06 05:40:58;;;;;;;;;8.00;8.00;;;;;8.76;65.24;100971.31;5062259;28;45462;-47
2021/12/06 05:43:25;;;;;;;;;13.25;10.75;;;;;8.76;64.95;100973.06;5062184;28;45385;-48
2021/12/06 05:45:51;;;;;;;;;10.00;9.00;;;;;8.77;65.24;100983.53;5062188;28;45343;-47
2021/12/06 05:48:17;;;;;;;;;13.00;7.25;;;;;8.77;65.25;100980.06;5062091;28;45344;-46
2021/12/06 05:50:46;;;;;;;;;17.50;13.50;;;;;8.78;65.23;100976.56;5062129;28;47384;-49
2021/12/06 05:53:11;;;;;;;;;11.50;11.50;;;;;8.77;65.01;100978.31;5061919;28;45256;-48
2021/12/06 05:55:37;;;;;;;;;13.00;10.75;;;;;8.74;65.26;100973.09;5062150;28;45425;-52
2021/12/06 05:58:04;;;;;;;;;10.00;9.50;;;;;8.75;65.22;100980.06;5060689;28;45756;-51
2021/12/06 06:00:32;;;;;;;;;7.50;7.50;;;;;8.74;65.18;100978.31;5060928;28;46505;-49
2021/12/06 06:03:00;;;;;;;;;11.00;7.50;;;;;8.74;65.25;100986.19;5061684;28;45395;-47
2021/12/06 06:05:25;;;;;;;;;10.75;10.75;;;;;8.73;65.47;100980.91;5062069;28;45328;-46
2021/12/06 06:07:50;;;;;;;;;12.75;10.00;;;;;8.71;65.42;100985.31;5062028;28;45314;-50
2021/12/06 06:10:16;;;;;;;;;10.75;10.75;;;;;8.71;65.38;100980.06;5061710;28;45445;-49
2021/12/06 06:12:43;;;;;;;;;10.75;10.00;;;;;8.70;65.41;100983.56;5061821;28;45288;-50
2021/12/06 06:15:09;;;;;;;;;10.25;9.75;;;;;8.69;65.51;100989.69;5061979;28;45340;-46
2021/12/06 06:17:43;;;;;;;;;7.50;7.00;;;;;8.69;65.50;100987.06;5061823;28;45391;-47
2021/12/06 06:20:37;;;;;;;;;11.00;7.25;;;;;8.67;65.49;100989.69;5061562;28;46500;-49
2021/12/06 06:23:03;;;;;;;;;6.50;6.50;;;;;8.68;65.39;100995.78;5057189;28;45344;-50
2021/12/06 06:25:35;;;;;;;;;9.00;6.25;;;;;8.66;65.34;100993.19;5061508;28;45232;-46
2021/12/06 06:28:03;;;;;;;;;10.25;10.00;;;;;8.66;65.60;100995.78;5076656;28;45577;-48
2021/12/06 06:30:29;;;;;;;;;10.50;8.00;;;;;8.65;65.31;100999.28;5061065;28;47466;-52
2021/12/06 06:32:55;;;;;;;;;12.00;10.50;;;;;8.66;65.46;101005.41;5061541;28;45343;-46
2021/12/06 06:35:21;;;;;;;;;9.50;7.25;;;;;8.66;65.48;101018.53;5061630;28;45460;-48
2021/12/06 06:37:47;;;;;;;;;7.00;5.25;;;;;8.67;65.24;101017.66;5061547;28;45247;-47
2021/12/06 06:40:13;;;;;;;;;7.75;7.75;;;;;8.67;65.33;101025.50;5061137;28;46217;-49
2021/12/06 06:42:39;;;;;;;;;6.00;6.00;;;;;8.65;65.65;101020.25;5061467;28;45447;-51
2021/12/06 06:45:07;;;;;;;;;7.50;5.75;;;;;8.66;65.29;101015.91;5061106;28;45425;-49
2021/12/06 06:47:32;;;;;;;;;11.00;11.00;;;;;8.65;65.82;101016.78;5061191;28;45386;-45
2021/12/06 06:49:57;;;;;;;;;19.50;18.25;;;;;8.64;65.63;101021.16;5061146;28;45316;-46
2021/12/06 06:52:23;;;;;;;;;44.25;37.25;;;;;8.63;65.49;101014.16;5061210;28;45384;-46
2021/12/06 06:54:48;;;;;;;;;11.00;10.75;;;;;8.61;65.42;101014.13;5060038;28;45415;-45
2021/12/06 06:57:15;;;;;;;;;15.00;12.75;;;;;8.62;65.43;101021.13;5060008;28;45373;-48
2021/12/06 06:59:41;;;;;;;;;32.50;29.50;;;;;8.63;65.35;101016.78;5061059;28;46346;-47
2021/12/06 07:02:08;;;;;;;;;13.75;12.75;;;;;8.62;65.33;101023.75;5060528;28;45345;-50
2021/12/06 07:04:34;;;;;;;;;12.00;10.25;;;;;8.61;65.53;101029.84;5061177;28;45320;-47
2021/12/06 07:06:59;;;;;;;;;9.50;9.50;;;;;8.62;65.34;101041.22;5061057;28;45232;-47
2021/12/06 07:09:25;;;;;;;;;11.75;9.50;;;;;8.61;65.64;101037.72;5076428;28;47201;-50
2021/12/06 07:11:51;;;;;;;;;11.25;9.75;;;;;8.62;65.15;101046.47;5059710;28;45251;-48
2021/12/06 07:14:17;;;;;;;;;20.75;19.75;;;;;8.61;65.60;101045.56;5061140;28;45419;-50
2021/12/06 07:16:44;;;;;;;;;48.00;41.25;;;;;8.61;65.53;101052.56;5060581;28;45434;-49
2021/12/06 07:19:10;;;;;;;;;57.50;44.50;;;;;8.59;65.59;101055.19;5060918;28;45245;-51
2021/12/06 07:21:36;;;;;;;;;38.25;34.25;;;;;8.59;65.70;101062.16;5059416;28;45352;-46
2021/12/06 07:24:01;;;;;;;;;35.75;33.75;;;;;8.58;65.40;101065.69;5060755;28;45314;-49
2021/12/06 07:26:27;;;;;;;;;32.50;30.75;;;;;8.57;65.53;101074.41;5059562;28;45380;-50
2021/12/06 07:28:54;;;;;;;;;34.00;31.00;;;;;8.55;65.46;101074.44;5059201;28;47257;-47
2021/12/06 07:31:21;;;;;;;;;20.75;20.25;;;;;8.56;65.27;101062.19;5060680;28;45287;-46
2021/12/06 07:33:47;;;;;;;;;20.50;19.50;;;;;8.54;65.68;101067.44;5060468;28;45506;-46
2021/12/06 07:36:13;;;;;;;;;19.00;17.25;;;;;8.44;65.27;101053.44;5060534;28;45262;-47
2021/12/06 07:38:39;;;;;;;;;17.50;14.75;;;;;8.48;65.49;101077.91;5060379;28;45399;-48
2021/12/06 07:41:12;;;;;;;;;23.00;18.00;;;;;8.48;65.49;101085.78;5060388;28;45394;-50
2021/12/06 07:43:38;;;;;;;;;15.75;14.00;;;;;8.47;65.50;101084.03;5060409;28;45276;-47
2021/12/06 07:46:05;;;;;;;;;12.75;12.75;;;;;8.44;65.43;101079.63;5054846;28;45329;-51
2021/12/06 07:48:30;;;;;;;;;17.25;12.75;;;;;8.44;65.45;101076.13;5060205;28;46768;-47
2021/12/06 07:50:56;;;;;;;;;13.50;13.50;;;;;8.43;65.46;101074.38;5060281;28;45302;-50
2021/12/06 07:53:22;;;;;;;;;13.50;12.00;;;;;8.38;65.17;101073.53;5059167;28;45293;-46
2021/12/06 07:55:48;;;;;;;;;14.25;12.50;;;;;8.31;65.31;101062.16;5060307;28;45450;-50
2021/12/06 07:58:13;;;;;;;;;10.00;5.00;;;;;8.38;65.48;101084.00;5060170;28;45234;-46
2021/12/06 08:00:44;;;;;;;;;8.25;8.00;;;;;8.35;65.39;101077.00;5060045;28;45224;-51
2021/12/06 08:03:10;;;;;;;;;12.50;11.00;;;;;8.34;65.10;101077.00;5060044;28;45323;-49
2021/12/06 08:05:38;;;;;;;;;6.50;5.00;;;;;8.28;65.14;101081.34;5060146;28;45470;-49
2021/12/06 08:08:17;;;;;;;;;12.00;10.00;;;;;8.29;65.42;101080.50;5059825;28;46209;-47
2021/12/06 08:10:46;;;;;;;;;7.25;5.50;;;;;8.27;65.18;101076.97;5059873;28;45483;-49
2021/12/06 08:13:14;;;;;;;;;7.50;5.00;;;;;8.26;64.94;101082.22;5059085;28;45309;-52
2021/12/06 08:15:40;;;;;;;;;8.25;6.25;;;;;8.20;65.20;101072.63;5059739;28;45252;-48
2021/12/06 08:18:07;;;;;;;;;6.25;5.25;;;;;8.22;65.44;101078.72;5058758;28;48215;-51
2021/12/06 08:20:35;;;;;;;;;9.00;6.75;;;;;8.21;65.34;101073.50;5059790;28;45271;-49
2021/12/06 08:23:00;;;;;;;;;6.00;6.00;;;;;8.16;65.34;101062.16;5059660;28;45311;-51
2021/12/06 08:25:26;;;;;;;;;10.00;6.00;;;;;8.17;65.31;101075.22;5059594;28;45513;-50
2021/12/06 08:27:52;;;;;;;;;11.00;6.00;;;;;8.18;65.32;101070.88;5059812;28;45964;-49
2021/12/06 08:30:22;;;;;;;;;10.25;9.00;;;;;8.16;65.31;101070.88;5058170;28;45495;-47
2021/12/06 08:32:50;;;;;;;;;9.00;9.00;;;;;8.13;65.30;101057.78;5058574;28;45281;-46
2021/12/06 08:35:16;;;;;;;;;10.75;8.50;;;;;8.14;65.15;101060.41;5057143;28;45320;-48
2021/12/06 08:37:41;;;;;;;;;10.25;10.00;;;;;8.16;65.50;101063.00;5059561;28;46262;-48
2021/12/06 08:40:07;;;;;;;;;11.50;10.25;;;;;8.16;65.54;101065.63;5059535;28;45228;-50
2021/12/06 08:42:33;;;;;;;;;9.25;9.25;;;;;8.20;65.39;101066.50;5059676;28;45220;-48
2021/12/06 08:44:59;;;;;;;;;10.00;8.75;;;;;8.20;65.18;101058.66;5059263;28;45247;-47
2021/12/06 08:47:25;;;;;;;;;13.50;12.00;;;;;8.24;65.58;101063.91;5059407;28;46341;-50
2021/12/06 08:49:51;;;;;;;;;10.75;10.75;;;;;8.30;65.42;101070.88;5059431;28;45240;-49
2021/12/06 08:52:16;;;;;;;;;13.00;11.25;;;;;8.31;65.63;101067.38;5059786;28;45224;-49
2021/12/06 08:54:43;;;;;;;;;11.75;11.75;;;;;8.37;65.25;101062.16;5041426;28;45467;-51
2021/12/06 08:57:09;;;;;;;;;16.00;12.00;;;;;8.39;65.47;101059.53;5059586;28;45479;-48
2021/12/06 08:59:34;;;;;;;;;10.00;8.75;;;;;8.44;65.64;101066.53;5059361;28;45562;-50
2021/12/06 09:02:00;;;;;;;;;15.00;11.75;;;;;8.51;65.66;101061.31;5059132;28;45443;-50
2021/12/06 09:04:28;;;;;;;;;11.25;11.25;;;;;8.54;65.84;101061.31;5059342;28;45425;-47
2021/12/06 09:06:55;;;;;;;;;14.25;11.25;;;;;8.56;65.91;101049.09;5059554;28;45287;-48
2021/12/06 09:09:21;;;;;;;;;11.25;8.50;;;;;8.64;65.92;101060.44;5057819;28;45410;-47
2021/12/06 09:11:47;;;;;;;;;15.25;13.00;;;;;8.68;65.76;101059.56;5059440;28;45292;-48
2021/12/06 09:14:14;;;;;;;;;11.50;10.75;;;;;8.73;65.91;101065.66;5059191;28;45337;-48
2021/12/06 09:16:41;;;;;;;;;16.75;12.75;;;;;8.80;65.77;101076.13;5059063;28;46577;-46
2021/12/06 09:19:08;;;;;;;;;18.75;17.75;;;;;8.85;66.06;101069.13;5059175;28;45343;-47
2021/12/06 09:21:37;;;;;;;;;22.75;18.25;;;;;8.90;66.04;101080.47;5059044;28;45295;-49
2021/12/06 09:24:05;;;;;;;;;19.50;15.25;;;;;8.96;66.05;101070.00;5058939;28;45704;-48
2021/12/06 09:26:31;;;;;;;;;13.50;13.00;;;;;8.93;66.03;101056.88;5059008;28;45420;-48
2021/12/06 09:28:57;;;;;;;;;19.00;17.00;;;;;9.04;66.12;101072.59;5058861;28;45327;-49
2021/12/06 09:31:23;;;;;;;;;22.75;15.00;;;;;9.09;66.09;101084.81;5059077;28;45358;-49
2021/12/06 09:33:48;;;;;;;;;18.75;14.50;;;;;9.14;66.15;101070.81;5057661;28;45306;-50
2021/12/06 09:36:14;;;;;;;;;18.25;16.25;;;;;9.15;66.17;101067.31;5062643;28;46467;-48
2021/12/06 09:38:42;;;;;;;;;21.75;17.75;;;;;9.19;66.25;101076.91;5062101;28;45288;-52
2021/12/06 09:41:13;;;;;;;;;22.25;17.75;;;;;9.24;66.22;101068.19;5061136;28;45390;-49
2021/12/06 09:43:41;;;;;;;;;23.00;20.25;;;;;9.22;66.20;101067.28;5062189;28;45476;-49
2021/12/06 09:46:08;;;;;;;;;26.75;21.50;;;;;9.28;66.22;101066.38;5061948;28;45362;-50
2021/12/06 09:48:35;;;;;;;;;23.00;21.25;;;;;9.34;65.91;101066.38;5062025;28;45323;-48
2021/12/06 09:51:05;;;;;;;;;27.00;26.00;;;;;9.34;66.13;101061.13;5062242;28;45283;-48
2021/12/06 09:53:33;;;;;;;;;28.25;19.25;;;;;9.41;66.09;101067.22;5061950;28;45435;-50
2021/12/06 09:56:01;;;;;;;;;28.25;23.50;;;;;9.42;66.11;101069.84;5061943;28;45344;-50
2021/12/06 09:58:30;;;;;;;;;23.00;21.00;;;;;9.48;65.89;101061.06;5062246;28;45244;-47
2021/12/06 10:00:59;;;;;;;;;24.00;20.50;;;;;9.54;65.91;101065.41;5061635;28;45290;-52
2021/12/06 10:03:28;;;;;;;;;22.50;17.75;;;;;9.54;66.00;101066.28;5061666;28;45540;-48
2021/12/06 10:06:01;;;;;;;;;24.25;20.50;;;;;9.59;65.89;101068.91;5061798;28;45287;-51
2021/12/06 10:08:27;;;;;;;;;24.50;22.25;;;;;9.61;65.96;101064.53;5061997;28;45350;-51
2021/12/06 10:10:52;;;;;;;;;24.00;22.00;;;;;9.62;65.94;101063.63;5061724;28;45456;-47
2021/12/06 10:13:18;;;;;;;;;21.25;19.25;;;;;9.65;66.11;101053.13;5043816;28;45519;-49
2021/12/06 10:15:43;;;;;;;;;20.25;19.75;;;;;9.68;66.07;101058.34;5061550;28;46057;-50
2021/12/06 10:18:10;;;;;;;;;14.00;13.50;;;;;9.64;66.14;101054.00;5061921;28;45327;-48
2021/12/06 10:20:35;;;;;;;;;27.75;21.75;;;;;9.68;65.86;101055.72;5061900;28;45470;-47
2021/12/06 10:23:01;;;;;;;;;33.50;30.25;;;;;9.73;65.90;101055.69;5061785;28;46183;-47
2021/12/06 10:25:37;;;;;;;;;32.50;30.50;;;;;9.76;65.43;101042.56;5061504;28;45240;-50
2021/12/06 10:28:05;;;;;;;;;20.50;16.50;;;;;9.78;65.62;101024.19;5060347;28;45687;-51
2021/12/06 10:30:36;;;;;;;;;23.75;21.00;;;;;9.75;65.65;101015.44;5061338;28;45395;-49
2021/12/06 10:33:11;;;;;;;;;43.50;36.25;;;;;9.80;65.70;101017.16;5061527;28;45434;-48
2021/12/06 10:35:45;;;;;;;;;22.25;19.00;;;;;9.84;65.45;101017.13;5061347;28;45247;-48
2021/12/06 10:38:17;;;;;;;;;13.75;12.25;;;;;9.87;65.61;101013.63;5061429;28;45209;-51
2021/12/06 10:40:43;;;;;;;;;19.75;18.00;;;;;9.83;65.36;100993.53;5061337;28;45220;-50
2021/12/06 10:43:11;;;;;;;;;16.75;15.00;;;;;9.87;65.35;100992.63;5059848;28;45464;-50
2021/12/06 10:45:42;;;;;;;;;13.25;10.00;;;;;9.88;65.62;100989.97;5056684;28;46192;-50
2021/12/06 10:48:19;;;;;;;;;15.25;15.00;;;;;9.82;65.50;100968.16;5061179;28;45433;-52
2021/12/06 10:51:01;;;;;;;;;11.50;11.00;;;;;9.91;65.42;100989.06;5061394;28;45313;-49
2021/12/06 10:53:38;;;;;;;;;15.25;13.50;;;;;9.93;65.29;100998.69;5061088;28;45460;-47
2021/12/06 10:56:14;;;;;;;;;15.00;14.00;;;;;9.91;65.27;100987.34;5059742;28;47801;-52
2021/12/06 10:58:40;;;;;;;;;14.25;12.25;;;;;9.88;65.19;100981.22;5061206;28;45255;-49
2021/12/06 11:01:16;;;;;;;;;13.50;8.75;;;;;9.88;64.99;100987.34;5060716;28;45471;-50
2021/12/06 11:03:47;;;;;;;;;12.75;11.25;;;;;9.91;65.10;100978.56;5060906;28;45296;-48
2021/12/06 11:06:19;;;;;;;;;22.25;18.25;;;;;9.90;64.87;100966.34;5060691;28;46271;-48
2021/12/06 11:08:47;;;;;;;;;14.75;13.00;;;;;9.92;64.91;100960.22;5060910;28;45310;-46
2021/12/06 11:11:20;;;;;;;;;16.25;14.00;;;;;9.90;65.01;100961.97;5060748;28;45231;-49
2021/12/06 11:13:49;;;;;;;;;12.00;7.50;;;;;9.95;64.94;100961.94;5060892;28;45489;-49
2021/12/06 11:16:27;;;;;;;;;12.75;11.50;;;;;10.01;64.93;100958.38;5060326;28;46381;-47
2021/12/06 11:18:56;;;;;;;;;4.75;4.00;;;;;10.03;64.96;100967.13;5060822;28;45414;-47
2021/12/06 11:21:38;;;;;;;;;11.75;10.25;;;;;10.01;64.99;100975.03;5060911;28;45335;-48
2021/12/06 11:24:11;;;;;;;;;12.50;10.50;;;;;10.01;65.06;100951.38;5059304;28;45400;-47
2021/12/06 11:26:44;;;;;;;;;13.75;13.75;;;;;10.08;64.86;100952.19;5059338;28;47235;-52
2021/12/06 11:29:22;;;;;;;;;14.75;11.00;;;;;10.15;64.98;100963.50;5060477;28;45293;-51
2021/12/06 11:31:52;;;;;;;;;17.00;14.50;;;;;10.18;64.88;100959.09;5059215;28;45289;-52
2021/12/06 11:34:18;;;;;;;;;14.75;12.75;;;;;10.20;64.87;100961.72;5060549;28;45447;-54
2021/12/06 11:36:44;;;;;;;;;13.50;9.25;;;;;10.16;64.57;100971.41;5060291;28;46369;-50
2021/12/06 11:39:19;;;;;;;;;17.25;12.00;;;;;10.19;64.81;100962.63;5060700;28;45405;-47
2021/12/06 11:41:49;;;;;;;;;9.00;8.00;;;;;10.18;64.52;100958.25;5060458;28;45208;-50
2021/12/06 11:44:20;;;;;;;;;17.50;16.75;;;;;10.17;64.57;100946.84;5059120;28;45499;-49
2021/12/06 11:46:46;;;;;;;;;16.00;14.75;;;;;10.07;64.61;100934.69;5058572;28;45294;-49